• Join FlightAware (Why Join?)
  • Login
  • US Flag 
09:05AM EDT


 

Airport Tracker/Info


-or-


 

Live Flight TrackerFlight Track Log ✈ RPA3159 ✈ 31-Jul-2013 ✈ KBTV - KPHL

Flight Track Log - Related Links

Times and Time Zones

All times are in EDT time to prevent confusion due to time zone crossing. See the RPA3159 flight status page for this flight to view local times or setup timezone preferences in your user account.

Time Position Orientation Groundspeed Altitude Reporting Facility
EDT Latitude Longitude Course Direction KTS MPH feet Rate Location/Type
11:49AM 44.2631 -73.1850 198° South 294 338 8,800  Level Boston Center
11:50AM 44.0234 -73.3144 194° South  Level FlightAware Approximate
11:50AM 44.1794 -73.2303 201° Southwest 301 346 11,600  Level Boston Center
11:51AM 43.9339 -73.3443 193° South  Level FlightAware Approximate
11:51AM 44.1019 -73.2958 211° Southwest 318 366 14,100  Level Boston Center
11:52AM 43.8375 -73.3798 195° South  Level FlightAware Approximate
11:52AM 44.0242 -73.3669 213° Southwest 337 388 16,400  Level Boston Center
11:53AM 43.7412 -73.4159 195° South  Level FlightAware Approximate
11:53AM 43.9403 -73.4406 212° Southwest 356 410 18,600  Level Boston Center
11:54AM 43.6450 -73.4523 198° South  Level FlightAware Approximate
11:54AM 43.8583 -73.5142 213° Southwest 356 410 21,100  Level Boston Center
11:55AM 43.5502 -73.4954 198° South  Level FlightAware Approximate
11:55AM 43.7742 -73.5872 212° Southwest 356 410 23,300  Level Boston Center
11:56AM 43.6881 -73.6633 213° Southwest 361 415 25,200 1,740 Climbing Boston Center
11:57AM 43.6103 -73.7333 213° Southwest 367 422 26,800 1,380 Climbing Boston Center
11:58AM 43.5239 -73.8117 213° Southwest 372 428 28,000 540 Climbing Boston Center
11:59AM 43.4333 -73.8897 212° Southwest 377 434 28,000  Level Boston Center
12:00PM 43.3447 -73.9647 212° Southwest 377 434 28,000  Level Boston Center
12:01PM 43.2456 -74.0478 211° Southwest 383 441 28,000  Level Boston Center
12:02PM 43.1653 -74.1194 213° Southwest 383 441 28,000  Level Boston Center
12:03PM 43.0683 -74.2050 213° Southwest 383 441 28,000  Level Boston Center
12:04PM 42.9900 -74.2708 212° Southwest 383 441 28,000 -420 Level Boston Center
12:05PM 42.8908 -74.3558 212° Southwest 383 441 27,200 -1,020 Descending Boston Center
12:06PM 42.8081 -74.4297 213° Southwest 389 448 26,000 -600 Descending Boston Center
12:07PM 42.7364 -74.4867 210° Southwest 389 448 26,000  Level Boston Center
12:08PM 42.6283 -74.5819 213° Southwest 394 453 26,000  Level Boston Center
12:09PM 42.5286 -74.6631 211° Southwest 394 453 26,000 -240 Level Boston Center
12:10PM 42.4481 -74.7333 213° Southwest 394 453 25,600 -960 Descending Boston Center
12:11PM 42.3442 -74.8222 212° Southwest 401 461 24,100 -840 Descending Boston Center
12:13PM 42.1697 -74.9681 212° Southwest 408 470 23,200 -1,020 Descending New York Center
12:14PM 42.0753 -75.0458 211° Southwest 408 470 21,200 -2,100 Descending New York Center
12:15PM 41.9767 -75.1286 212° Southwest 396 456 19,000 -1,140 Descending New York Center
12:16PM 41.8867 -75.2006 211° Southwest 390 449 19,000  Level New York Center
12:17PM 41.7944 -75.2725 210° Southwest 390 449 19,000 -600 Level New York Center
12:18PM 41.7147 -75.3392 212° Southwest 390 449 17,900 -1,560 Descending New York Center
12:19PM 41.6244 -75.4108 211° Southwest 385 443 15,900 -2,220 Descending New York Center
12:20PM 41.5278 -75.4872 211° Southwest 380 437 13,600 -2,040 Descending New York Center
12:21PM 41.4458 -75.5533 211° Southwest 367 422 12,000 -840 Descending New York Center
12:22PM 41.3642 -75.6194 211° Southwest 357 411 12,000  Level New York Center
12:23PM 41.2889 -75.6775 210° Southwest 352 405 12,000  Level New York Center
12:24PM 41.1947 -75.6900 186° South 338 389 12,000  Level New York Center
12:25PM 41.0989 -75.6886 179° South 348 400 12,000  Level New York Center
12:26PM 41.0011 -75.6869 179° South 354 407 12,000  Level New York Center
12:27PM 40.9008 -75.6881 180° South 359 413 12,000  Level New York Center
12:28PM 40.7986 -75.6450 162° South 352 405 12,000  Level New York Center
12:29PM 40.7092 -75.5892 155° Southeast 352 405 12,000  Level New York Center
12:30PM 40.6278 -75.5397 155° Southeast 358 412 12,000 -300 Level New York Center
12:31PM 40.5403 -75.4872 155° Southeast 353 406 11,400 -1,020 Descending New York Center
12:32PM 40.4506 -75.4347 156° South 332 382 10,000 -1,320 Descending New York Center
12:33PM 40.3772 -75.3917 156° South 310 357 8,800 -1,260 Descending New York Center
12:34PM 40.3122 -75.3519 155° Southeast 292 336 7,500 -1,260 Descending New York Center
12:35PM 40.2408 -75.3119 157° South 287 330 6,300 -780 Descending New York Center
12:36PM 40.1675 -75.2664 155° Southeast 292 336 6,000 -180 Descending New York Center
12:37PM 40.1033 -75.2025 143° Southeast 277 319 6,000  Level New York Center
12:38PM 40.0667 -75.1500 132° Southeast 217 250 6,000  Level Philadelphia TRACON
12:39PM 40.0167 -75.1000 143° Southeast 213 245 6,000  Level Philadelphia TRACON
12:40PM 40.0000 -75.0333 108° East 200 230 6,000 -360 Level Philadelphia TRACON
12:41PM 40.0167 -74.9667 72° East 195 224 5,300 -1,020 Descending Philadelphia TRACON
12:42PM 39.9833 -74.9333 143° Southeast 178 205 4,000 -1,200 Descending Philadelphia TRACON
12:43PM 39.9500 -74.9333 180° South 182 209 3,000 -540 Descending Philadelphia TRACON
12:44PM 39.9167 -75.0000 237° Southwest 177 204 3,000 -240 Level Philadelphia TRACON
12:45PM 39.9167 -75.0500 270° West 174 200 2,600 -660 Descending Philadelphia TRACON
12:46PM 39.9000 -75.1167 252° West 175 201 1,700 -840 Descending Philadelphia TRACON
12:47PM 39.8833 -75.1667 247° West 131 151 1,000 -720 Descending Philadelphia TRACON
12:48PM 39.8833 -75.2167 270° West 134 154 300 -720 Descending Philadelphia TRACON